sensor_id;sensor_type;location;lat;lon;timestamp;pressure;altitude;pressure_sealevel;temperature;humidity
53715;BME280;39608;55.630;37.864;2024-01-10T12:19:56;99598.03;;;-10.94;86.24
53715;BME280;39608;55.630;37.864;2024-01-10T12:25:04;99610.59;;;-10.28;85.28
53715;BME280;39608;55.630;37.864;2024-01-10T12:30:06;99606.22;;;-9.69;84.88
53715;BME280;39608;55.630;37.864;2024-01-10T12:35:10;99586.56;;;-9.23;84.12
53715;BME280;39608;55.630;37.864;2024-01-10T12:40:13;99599.19;;;-8.94;83.02
53715;BME280;39608;55.630;37.864;2024-01-10T12:45:23;99607.00;;;-8.53;81.85
53715;BME280;39608;55.630;37.864;2024-01-10T12:50:27;99600.66;;;-8.35;81.81
53715;BME280;39608;55.630;37.864;2024-01-10T12:55:29;99593.03;;;-8.14;80.73
53715;BME280;39608;55.630;37.864;2024-01-10T13:00:34;99589.44;;;-7.89;80.34
53715;BME280;39608;55.630;37.864;2024-01-10T13:05:38;99588.81;;;-7.92;80.81
53715;BME280;39608;55.630;37.864;2024-01-10T13:10:41;99582.84;;;-7.85;80.75
53715;BME280;39608;55.630;37.864;2024-01-10T13:15:45;99577.41;;;-7.84;81.65
53715;BME280;39608;55.630;37.864;2024-01-10T13:20:49;99582.84;;;-7.85;81.78
53715;BME280;39608;55.630;37.864;2024-01-10T13:25:51;99575.13;;;-7.87;81.90
53715;BME280;39608;55.630;37.864;2024-01-10T13:30:53;99571.69;;;-7.87;82.38
53715;BME280;39608;55.630;37.864;2024-01-10T13:35:58;99563.31;;;-7.91;82.48
53715;BME280;39608;55.630;37.864;2024-01-10T13:41:03;99551.31;;;-7.94;82.81
53715;BME280;39608;55.630;37.864;2024-01-10T13:46:06;99551.53;;;-8.03;82.33
53715;BME280;39608;55.630;37.864;2024-01-10T13:51:10;99554.06;;;-8.18;82.53
53715;BME280;39608;55.630;37.864;2024-01-10T13:56:21;99549.19;;;-8.30;82.33
53715;BME280;39608;55.630;37.864;2024-01-10T14:01:23;99532.88;;;-8.56;81.99
53715;BME280;39608;55.630;37.864;2024-01-10T14:06:28;99532.78;;;-8.71;81.49
53715;BME280;39608;55.630;37.864;2024-01-10T14:11:30;99538.06;;;-8.80;81.71
53715;BME280;39608;55.630;37.864;2024-01-10T14:16:38;99530.22;;;-8.88;81.74
53715;BME280;39608;55.630;37.864;2024-01-10T14:21:43;99517.72;;;-8.94;81.41
53715;BME280;39608;55.630;37.864;2024-01-10T14:26:46;99506.94;;;-9.07;81.67
53715;BME280;39608;55.630;37.864;2024-01-10T14:31:49;99486.72;;;-9.07;81.21
53715;BME280;39608;55.630;37.864;2024-01-10T14:36:52;99494.97;;;-9.18;81.35
53715;BME280;39608;55.630;37.864;2024-01-10T14:41:54;99491.03;;;-9.31;81.28
53715;BME280;39608;55.630;37.864;2024-01-10T14:46:56;99486.75;;;-9.32;81.04
53715;BME280;39608;55.630;37.864;2024-01-10T14:52:02;99484.66;;;-9.36;80.83
53715;BME280;39608;55.630;37.864;2024-01-10T14:57:04;99479.06;;;-9.41;80.47
53715;BME280;39608;55.630;37.864;2024-01-10T15:02:06;99468.09;;;-9.53;80.44
53715;BME280;39608;55.630;37.864;2024-01-10T15:07:10;99461.72;;;-9.59;79.99
53715;BME280;39608;55.630;37.864;2024-01-10T15:12:12;99452.06;;;-9.83;80.55
53715;BME280;39608;55.630;37.864;2024-01-10T15:17:14;99466.47;;;-9.79;80.22
53715;BME280;39608;55.630;37.864;2024-01-10T15:22:17;99481.06;;;-9.93;79.97
53715;BME280;39608;55.630;37.864;2024-01-10T15:27:19;99463.84;;;-10.04;80.41
53715;BME280;39608;55.630;37.864;2024-01-10T15:32:24;99455.81;;;-9.94;79.70
53715;BME280;39608;55.630;37.864;2024-01-10T15:37:30;99457.47;;;-9.93;79.56
53715;BME280;39608;55.630;37.864;2024-01-10T15:42:32;99457.94;;;-9.98;79.69
53715;BME280;39608;55.630;37.864;2024-01-10T15:47:34;99462.22;;;-9.88;79.45
53715;BME280;39608;55.630;37.864;2024-01-10T15:52:37;99445.97;;;-9.84;79.44
53715;BME280;39608;55.630;37.864;2024-01-10T15:57:39;99454.34;;;-9.80;79.38
53715;BME280;39608;55.630;37.864;2024-01-10T16:02:41;99445.78;;;-9.66;79.35
53715;BME280;39608;55.630;37.864;2024-01-10T16:07:45;99450.56;;;-9.61;79.06
53715;BME280;39608;55.630;37.864;2024-01-10T16:12:47;99426.28;;;-9.63;79.33
53715;BME280;39608;55.630;37.864;2024-01-10T16:17:49;99439.22;;;-9.53;78.94
53715;BME280;39608;55.630;37.864;2024-01-10T16:23:01;99421.47;;;-9.43;78.88
53715;BME280;39608;55.630;37.864;2024-01-10T16:28:04;99393.44;;;-9.42;78.82
53715;BME280;39608;55.630;37.864;2024-01-10T16:33:16;99364.22;;;-9.48;78.67
53715;BME280;39608;55.630;37.864;2024-01-10T16:38:19;99372.69;;;-9.29;78.86
53715;BME280;39608;55.630;37.864;2024-01-10T16:43:22;99357.97;;;-9.30;78.75
53715;BME280;39608;55.630;37.864;2024-01-10T16:48:25;99339.22;;;-9.27;79.19
53715;BME280;39608;55.630;37.864;2024-01-10T16:53:28;99332.94;;;-9.18;78.92
53715;BME280;39608;55.630;37.864;2024-01-10T16:58:30;99326.84;;;-9.10;79.14
53715;BME280;39608;55.630;37.864;2024-01-10T17:03:33;99303.03;;;-9.08;78.69
53715;BME280;39608;55.630;37.864;2024-01-10T17:08:36;99298.88;;;-9.03;78.82
53715;BME280;39608;55.630;37.864;2024-01-10T17:13:38;99276.72;;;-9.00;78.54
53715;BME280;39608;55.630;37.864;2024-01-10T17:18:40;99261.56;;;-8.98;78.22
53715;BME280;39608;55.630;37.864;2024-01-10T17:23:43;99237.13;;;-8.99;78.08
53715;BME280;39608;55.630;37.864;2024-01-10T17:28:45;99215.63;;;-9.02;77.98
53715;BME280;39608;55.630;37.864;2024-01-10T17:33:50;99221.66;;;-8.93;77.67
53715;BME280;39608;55.630;37.864;2024-01-10T17:38:54;99205.72;;;-8.92;77.97
53715;BME280;39608;55.630;37.864;2024-01-10T17:43:56;99206.34;;;-8.90;77.72
53715;BME280;39608;55.630;37.864;2024-01-10T17:48:59;99183.47;;;-8.81;77.86
53715;BME280;39608;55.630;37.864;2024-01-10T17:54:11;99172.88;;;-8.73;77.73
53715;BME280;39608;55.630;37.864;2024-01-10T17:59:13;99157.94;;;-8.72;77.35
53715;BME280;39608;55.630;37.864;2024-01-10T18:04:15;99136.91;;;-8.72;77.66
53715;BME280;39608;55.630;37.864;2024-01-10T18:09:19;99114.97;;;-8.65;77.37
53715;BME280;39608;55.630;37.864;2024-01-10T18:14:20;99091.50;;;-8.66;77.19
53715;BME280;39608;55.630;37.864;2024-01-10T18:19:23;99077.72;;;-8.53;76.86
53715;BME280;39608;55.630;37.864;2024-01-10T18:24:26;99054.78;;;-8.45;76.58
53715;BME280;39608;55.630;37.864;2024-01-10T18:29:50;99034.88;;;-8.32;76.00
53715;BME280;39608;55.630;37.864;2024-01-10T18:35:05;99028.00;;;-8.33;75.91
53715;BME280;39608;55.630;37.864;2024-01-10T18:40:09;99022.53;;;-8.32;76.10
53715;BME280;39608;55.630;37.864;2024-01-10T18:45:12;98909.63;;;-8.77;75.70
53715;BME280;39608;55.630;37.864;2024-01-10T18:50:14;98981.25;;;-8.16;75.37
53715;BME280;39608;55.630;37.864;2024-01-10T18:55:19;98963.09;;;-8.11;75.62
53715;BME280;39608;55.630;37.864;2024-01-10T19:00:22;98959.00;;;-8.14;75.39
53715;BME280;39608;55.630;37.864;2024-01-10T19:05:29;98898.50;;;-8.35;75.48
53715;BME280;39608;55.630;37.864;2024-01-10T19:10:32;98924.44;;;-8.11;75.14
53715;BME280;39608;55.630;37.864;2024-01-10T19:15:34;98887.84;;;-8.27;75.04
53715;BME280;39608;55.630;37.864;2024-01-10T19:20:36;98873.38;;;-8.16;75.06
53715;BME280;39608;55.630;37.864;2024-01-10T19:25:40;98861.03;;;-8.16;75.06
53715;BME280;39608;55.630;37.864;2024-01-10T19:30:43;98855.16;;;-8.18;74.67
53715;BME280;39608;55.630;37.864;2024-01-10T19:35:44;98843.72;;;-8.32;74.64
53715;BME280;39608;55.630;37.864;2024-01-10T19:40:48;98835.19;;;-8.34;75.14
53715;BME280;39608;55.630;37.864;2024-01-10T19:45:56;98807.56;;;-8.23;75.04
53715;BME280;39608;55.630;37.864;2024-01-10T19:50:58;98790.41;;;-8.19;75.05
53715;BME280;39608;55.630;37.864;2024-01-10T19:56:02;98762.00;;;-8.30;75.00
53715;BME280;39608;55.630;37.864;2024-01-10T20:01:10;98727.69;;;-8.22;74.95
53715;BME280;39608;55.630;37.864;2024-01-10T20:06:12;98723.47;;;-8.16;75.05
53715;BME280;39608;55.630;37.864;2024-01-10T20:11:17;98712.34;;;-8.12;75.41
53715;BME280;39608;55.630;37.864;2024-01-10T20:16:23;98688.28;;;-8.09;75.02
53715;BME280;39608;55.630;37.864;2024-01-10T20:21:25;98675.75;;;-8.06;75.24
53715;BME280;39608;55.630;37.864;2024-01-10T20:26:29;98640.56;;;-8.05;75.36
53715;BME280;39608;55.630;37.864;2024-01-10T20:31:31;98630.25;;;-8.00;75.35
53715;BME280;39608;55.630;37.864;2024-01-10T20:36:39;98612.47;;;-7.92;74.96
53715;BME280;39608;55.630;37.864;2024-01-10T20:41:43;98585.78;;;-7.88;75.41
53715;BME280;39608;55.630;37.864;2024-01-10T20:46:46;98574.63;;;-7.97;75.91
53715;BME280;39608;55.630;37.864;2024-01-10T20:51:48;98543.22;;;-7.99;76.07
53715;BME280;39608;55.630;37.864;2024-01-10T20:56:52;98532.94;;;-7.87;75.96
53715;BME280;39608;55.630;37.864;2024-01-10T21:01:54;98510.06;;;-7.80;75.93
53715;BME280;39608;55.630;37.864;2024-01-10T21:06:56;98478.28;;;-7.78;76.07
53715;BME280;39608;55.630;37.864;2024-01-10T21:12:01;98467.19;;;-7.74;76.58
53715;BME280;39608;55.630;37.864;2024-01-10T21:17:04;98430.72;;;-7.77;76.72
53715;BME280;39608;55.630;37.864;2024-01-10T21:22:09;98421.81;;;-7.62;76.43
53715;BME280;39608;55.630;37.864;2024-01-10T21:27:14;98408.44;;;-7.61;76.45
53715;BME280;39608;55.630;37.864;2024-01-10T21:32:16;98387.97;;;-7.65;76.21
53715;BME280;39608;55.630;37.864;2024-01-10T21:37:18;98374.81;;;-7.59;76.52
53715;BME280;39608;55.630;37.864;2024-01-10T21:42:22;98362.22;;;-7.50;76.47
53715;BME280;39608;55.630;37.864;2024-01-10T21:47:26;98342.78;;;-7.42;76.43
53715;BME280;39608;55.630;37.864;2024-01-10T21:52:32;98309.75;;;-7.38;76.68
53715;BME280;39608;55.630;37.864;2024-01-10T21:57:38;98285.66;;;-7.42;76.87
53715;BME280;39608;55.630;37.864;2024-01-10T22:02:41;98263.59;;;-7.47;77.37
53715;BME280;39608;55.630;37.864;2024-01-10T22:07:43;98234.69;;;-7.54;77.65
53715;BME280;39608;55.630;37.864;2024-01-10T22:12:50;98216.34;;;-7.35;77.70
53715;BME280;39608;55.630;37.864;2024-01-10T22:17:52;98196.38;;;-7.18;76.76
53715;BME280;39608;55.630;37.864;2024-01-10T22:22:54;98155.44;;;-7.14;76.53
53715;BME280;39608;55.630;37.864;2024-01-10T22:27:57;98141.78;;;-7.04;76.74
53715;BME280;39608;55.630;37.864;2024-01-10T22:33:08;98130.19;;;-6.96;76.54
53715;BME280;39608;55.630;37.864;2024-01-10T22:38:10;98108.72;;;-7.00;76.74
53715;BME280;39608;55.630;37.864;2024-01-10T22:43:14;98082.75;;;-6.96;76.54
53715;BME280;39608;55.630;37.864;2024-01-10T22:48:15;98074.19;;;-6.92;76.86
53715;BME280;39608;55.630;37.864;2024-01-10T22:53:19;98057.13;;;-6.89;76.92
53715;BME280;39608;55.630;37.864;2024-01-10T22:58:22;98034.00;;;-6.87;76.99
53715;BME280;39608;55.630;37.864;2024-01-10T23:03:24;98011.22;;;-6.81;76.92
53715;BME280;39608;55.630;37.864;2024-01-10T23:08:31;97988.91;;;-6.79;76.84
53715;BME280;39608;55.630;37.864;2024-01-10T23:13:34;97964.59;;;-6.81;76.79
53715;BME280;39608;55.630;37.864;2024-01-10T23:18:36;97936.34;;;-6.74;76.90
53715;BME280;39608;55.630;37.864;2024-01-10T23:23:39;97900.38;;;-6.68;76.62
53715;BME280;39608;55.630;37.864;2024-01-10T23:28:44;97887.19;;;-6.68;76.93
53715;BME280;39608;55.630;37.864;2024-01-10T23:33:46;97883.09;;;-6.64;77.01
53715;BME280;39608;55.630;37.864;2024-01-10T23:38:48;97853.41;;;-6.59;77.05
53715;BME280;39608;55.630;37.864;2024-01-10T23:43:51;97830.03;;;-6.56;77.52
53715;BME280;39608;55.630;37.864;2024-01-10T23:48:56;97816.03;;;-6.56;77.31
53715;BME280;39608;55.630;37.864;2024-01-10T23:54:01;97804.22;;;-6.54;77.27
53715;BME280;39608;55.630;37.864;2024-01-10T23:59:05;97784.97;;;-6.54;77.63
